sensor_id;sensor_type;location;lat;lon;timestamp;temperature;humidity
75838;SHT30;64480;52.040;113.502;2023-12-29T00:02:07;-16.75;74.58
75838;SHT30;64480;52.040;113.502;2023-12-29T00:05:10;-16.79;74.81
75838;SHT30;64480;52.040;113.502;2023-12-29T00:08:15;-16.84;75.03
75838;SHT30;64480;52.040;113.502;2023-12-29T00:11:21;-16.90;75.31
75838;SHT30;64480;52.040;113.502;2023-12-29T00:14:26;-16.93;75.55
75838;SHT30;64480;52.040;113.502;2023-12-29T00:17:33;-16.99;75.88
75838;SHT30;64480;52.040;113.502;2023-12-29T00:20:40;-17.07;75.99
75838;SHT30;64480;52.040;113.502;2023-12-29T00:23:43;-17.01;76.58
75838;SHT30;64480;52.040;113.502;2023-12-29T00:26:46;-16.90;76.70
75838;SHT30;64480;52.040;113.502;2023-12-29T00:29:52;-16.83;76.68
75838;SHT30;64480;52.040;113.502;2023-12-29T00:32:56;-16.70;76.48
75838;SHT30;64480;52.040;113.502;2023-12-29T00:35:59;-16.59;76.42
75838;SHT30;64480;52.040;113.502;2023-12-29T00:39:05;-16.56;76.13
75838;SHT30;64480;52.040;113.502;2023-12-29T00:42:10;-16.51;75.98
75838;SHT30;64480;52.040;113.502;2023-12-29T00:45:14;-16.51;75.97
75838;SHT30;64480;52.040;113.502;2023-12-29T00:48:17;-16.48;76.11
75838;SHT30;64480;52.040;113.502;2023-12-29T00:51:22;-16.39;76.67
75838;SHT30;64480;52.040;113.502;2023-12-29T00:54:26;-16.37;76.42
75838;SHT30;64480;52.040;113.502;2023-12-29T00:57:32;-16.34;76.40
75838;SHT30;64480;52.040;113.502;2023-12-29T01:00:40;-16.16;76.76
75838;SHT30;64480;52.040;113.502;2023-12-29T01:03:43;-16.10;76.63
75838;SHT30;64480;52.040;113.502;2023-12-29T01:06:47;-15.97;76.80
75838;SHT30;64480;52.040;113.502;2023-12-29T01:09:51;-15.96;76.03
75838;SHT30;64480;52.040;113.502;2023-12-29T01:12:56;-15.92;75.65
75838;SHT30;64480;52.040;113.502;2023-12-29T01:16:00;-15.90;75.70
75838;SHT30;64480;52.040;113.502;2023-12-29T01:19:04;-15.82;75.79
75838;SHT30;64480;52.040;113.502;2023-12-29T01:22:08;-15.73;76.05
75838;SHT30;64480;52.040;113.502;2023-12-29T01:25:11;-15.76;75.40
75838;SHT30;64480;52.040;113.502;2023-12-29T01:28:14;-15.71;75.33
75838;SHT30;64480;52.040;113.502;2023-12-29T01:31:19;-15.66;74.99
75838;SHT30;64480;52.040;113.502;2023-12-29T01:34:23;-15.62;74.41
75838;SHT30;64480;52.040;113.502;2023-12-29T01:37:27;-15.57;74.06
75838;SHT30;64480;52.040;113.502;2023-12-29T01:40:42;-15.43;74.85
75838;SHT30;64480;52.040;113.502;2023-12-29T01:47:14;-15.31;74.58
75838;SHT30;64480;52.040;113.502;2023-12-29T01:50:21;-15.24;73.99
75838;SHT30;64480;52.040;113.502;2023-12-29T01:53:25;-15.17;73.82
75838;SHT30;64480;52.040;113.502;2023-12-29T01:56:44;-15.17;74.00
75838;SHT30;64480;52.040;113.502;2023-12-29T01:59:50;-15.24;73.66
75838;SHT30;64480;52.040;113.502;2023-12-29T02:02:54;-15.22;73.19
75838;SHT30;64480;52.040;113.502;2023-12-29T02:05:57;-15.06;73.84
75838;SHT30;64480;52.040;113.502;2023-12-29T02:09:03;-15.09;73.62
75838;SHT30;64480;52.040;113.502;2023-12-29T02:12:08;-15.07;74.12
75838;SHT30;64480;52.040;113.502;2023-12-29T02:15:12;-14.89;75.22
75838;SHT30;64480;52.040;113.502;2023-12-29T02:18:19;-14.78;74.93
75838;SHT30;64480;52.040;113.502;2023-12-29T02:21:25;-14.74;73.94
75838;SHT30;64480;52.040;113.502;2023-12-29T02:24:28;-14.68;73.63
75838;SHT30;64480;52.040;113.502;2023-12-29T02:32:11;-14.33;73.21
75838;SHT30;64480;52.040;113.502;2023-12-29T02:36:24;-14.25;71.79
75838;SHT30;64480;52.040;113.502;2023-12-29T02:43:49;-14.29;70.14
75838;SHT30;64480;52.040;113.502;2023-12-29T03:06:45;-14.85;70.67
75838;SHT30;64480;52.040;113.502;2023-12-29T03:09:49;-14.74;71.01
75838;SHT30;64480;52.040;113.502;2023-12-29T03:12:53;-14.72;70.12
75838;SHT30;64480;52.040;113.502;2023-12-29T03:15:56;-14.63;69.98
75838;SHT30;64480;52.040;113.502;2023-12-29T03:18:59;-14.43;69.88
75838;SHT30;64480;52.040;113.502;2023-12-29T03:22:04;-14.11;69.36
75838;SHT30;64480;52.040;113.502;2023-12-29T03:25:09;-13.81;69.34
75838;SHT30;64480;52.040;113.502;2023-12-29T03:28:14;-13.56;68.29
75838;SHT30;64480;52.040;113.502;2023-12-29T03:31:18;-13.43;67.14
75838;SHT30;64480;52.040;113.502;2023-12-29T03:34:21;-13.23;66.92
75838;SHT30;64480;52.040;113.502;2023-12-29T03:37:24;-13.33;66.21
75838;SHT30;64480;52.040;113.502;2023-12-29T03:40:28;-13.22;66.49
75838;SHT30;64480;52.040;113.502;2023-12-29T03:43:35;-13.14;65.88
75838;SHT30;64480;52.040;113.502;2023-12-29T03:46:39;-13.16;65.92
75838;SHT30;64480;52.040;113.502;2023-12-29T03:49:44;-13.19;65.69
75838;SHT30;64480;52.040;113.502;2023-12-29T03:52:48;-13.23;65.75
75838;SHT30;64480;52.040;113.502;2023-12-29T03:55:51;-13.22;66.41
75838;SHT30;64480;52.040;113.502;2023-12-29T03:58:55;-13.15;66.53
75838;SHT30;64480;52.040;113.502;2023-12-29T04:02:00;-13.14;66.13
75838;SHT30;64480;52.040;113.502;2023-12-29T04:05:09;-12.98;66.38
75838;SHT30;64480;52.040;113.502;2023-12-29T04:08:14;-12.85;66.01
75838;SHT30;64480;52.040;113.502;2023-12-29T04:11:17;-12.63;66.64
75838;SHT30;64480;52.040;113.502;2023-12-29T04:14:20;-12.48;65.51
75838;SHT30;64480;52.040;113.502;2023-12-29T04:17:23;-12.59;64.96
75838;SHT30;64480;52.040;113.502;2023-12-29T04:20:27;-12.74;65.15
75838;SHT30;64480;52.040;113.502;2023-12-29T04:23:31;-12.72;65.54
75838;SHT30;64480;52.040;113.502;2023-12-29T04:26:38;-12.77;65.53
75838;SHT30;64480;52.040;113.502;2023-12-29T04:29:43;-12.62;66.28
75838;SHT30;64480;52.040;113.502;2023-12-29T04:32:48;-12.44;66.18
75838;SHT30;64480;52.040;113.502;2023-12-29T04:35:53;-12.34;65.82
75838;SHT30;64480;52.040;113.502;2023-12-29T04:38:59;-12.34;65.59
75838;SHT30;64480;52.040;113.502;2023-12-29T04:42:03;-12.36;65.80
75838;SHT30;64480;52.040;113.502;2023-12-29T04:45:07;-12.28;66.25
75838;SHT30;64480;52.040;113.502;2023-12-29T04:48:10;-12.22;65.04
75838;SHT30;64480;52.040;113.502;2023-12-29T04:51:14;-12.27;65.37
75838;SHT30;64480;52.040;113.502;2023-12-29T04:54:18;-12.27;66.06
75838;SHT30;64480;52.040;113.502;2023-12-29T04:57:22;-12.14;66.59
75838;SHT30;64480;52.040;113.502;2023-12-29T05:00:26;-12.13;65.69
75838;SHT30;64480;52.040;113.502;2023-12-29T05:03:30;-12.32;65.07
75838;SHT30;64480;52.040;113.502;2023-12-29T05:06:36;-12.44;65.31
75838;SHT30;64480;52.040;113.502;2023-12-29T05:09:43;-12.46;65.55
75838;SHT30;64480;52.040;113.502;2023-12-29T05:12:47;-12.59;65.80
75838;SHT30;64480;52.040;113.502;2023-12-29T05:15:52;-12.73;65.68
75838;SHT30;64480;52.040;113.502;2023-12-29T05:18:55;-12.87;66.09
75838;SHT30;64480;52.040;113.502;2023-12-29T05:21:59;-13.07;66.51
75838;SHT30;64480;52.040;113.502;2023-12-29T05:25:03;-13.10;67.48
75838;SHT30;64480;52.040;113.502;2023-12-29T05:28:07;-12.84;68.34
75838;SHT30;64480;52.040;113.502;2023-12-29T05:31:11;-12.94;66.92
75838;SHT30;64480;52.040;113.502;2023-12-29T05:34:15;-12.97;66.94
75838;SHT30;64480;52.040;113.502;2023-12-29T05:37:20;-13.05;67.46
75838;SHT30;64480;52.040;113.502;2023-12-29T05:40:24;-12.98;67.81
75838;SHT30;64480;52.040;113.502;2023-12-29T05:43:27;-12.77;68.19
75838;SHT30;64480;52.040;113.502;2023-12-29T05:46:32;-12.59;67.69
75838;SHT30;64480;52.040;113.502;2023-12-29T05:49:39;-12.52;67.10
75838;SHT30;64480;52.040;113.502;2023-12-29T05:52:44;-12.48;67.19
75838;SHT30;64480;52.040;113.502;2023-12-29T05:55:48;-12.44;66.97
75838;SHT30;64480;52.040;113.502;2023-12-29T05:58:52;-12.39;67.32
75838;SHT30;64480;52.040;113.502;2023-12-29T06:01:56;-12.41;66.99
75838;SHT30;64480;52.040;113.502;2023-12-29T06:04:59;-12.42;67.24
75838;SHT30;64480;52.040;113.502;2023-12-29T06:08:03;-12.35;67.28
75838;SHT30;64480;52.040;113.502;2023-12-29T06:11:07;-12.21;67.16
75838;SHT30;64480;52.040;113.502;2023-12-29T06:14:11;-12.06;67.10
75838;SHT30;64480;52.040;113.502;2023-12-29T06:17:15;-11.83;66.60
75838;SHT30;64480;52.040;113.502;2023-12-29T06:20:18;-11.51;66.52
75838;SHT30;64480;52.040;113.502;2023-12-29T06:23:22;-11.32;66.06
75838;SHT30;64480;52.040;113.502;2023-12-29T06:26:28;-11.35;65.50
75838;SHT30;64480;52.040;113.502;2023-12-29T06:29:32;-11.46;65.33
75838;SHT30;64480;52.040;113.502;2023-12-29T06:32:39;-11.56;65.93
75838;SHT30;64480;52.040;113.502;2023-12-29T06:35:43;-11.53;66.67
75838;SHT30;64480;52.040;113.502;2023-12-29T06:38:46;-11.49;67.78
75838;SHT30;64480;52.040;113.502;2023-12-29T06:41:51;-11.52;67.54
75838;SHT30;64480;52.040;113.502;2023-12-29T06:44:55;-11.66;67.96
75838;SHT30;64480;52.040;113.502;2023-12-29T06:47:59;-11.77;68.58
75838;SHT30;64480;52.040;113.502;2023-12-29T06:51:04;-11.93;68.34
75838;SHT30;64480;52.040;113.502;2023-12-29T06:54:08;-12.08;68.58
75838;SHT30;64480;52.040;113.502;2023-12-29T06:57:12;-12.14;68.65
75838;SHT30;64480;52.040;113.502;2023-12-29T07:00:18;-12.20;68.82
75838;SHT30;64480;52.040;113.502;2023-12-29T07:03:22;-12.27;68.42
75838;SHT30;64480;52.040;113.502;2023-12-29T07:06:26;-12.46;68.18
75838;SHT30;64480;52.040;113.502;2023-12-29T07:09:30;-12.73;68.25
75838;SHT30;64480;52.040;113.502;2023-12-29T07:12:37;-12.73;69.46
75838;SHT30;64480;52.040;113.502;2023-12-29T07:15:41;-12.87;68.60
75838;SHT30;64480;52.040;113.502;2023-12-29T07:18:45;-12.94;69.02
75838;SHT30;64480;52.040;113.502;2023-12-29T07:21:51;-12.88;69.83
75838;SHT30;64480;52.040;113.502;2023-12-29T07:24:54;-12.67;70.37
75838;SHT30;64480;52.040;113.502;2023-12-29T07:27:57;-12.66;69.79
75838;SHT30;64480;52.040;113.502;2023-12-29T07:31:02;-12.55;70.00
75838;SHT30;64480;52.040;113.502;2023-12-29T07:34:06;-12.41;69.74
75838;SHT30;64480;52.040;113.502;2023-12-29T07:37:10;-12.34;69.35
75838;SHT30;64480;52.040;113.502;2023-12-29T07:40:14;-12.34;69.36
75838;SHT30;64480;52.040;113.502;2023-12-29T07:43:18;-12.29;69.39
75838;SHT30;64480;52.040;113.502;2023-12-29T07:46:25;-12.34;68.83
75838;SHT30;64480;52.040;113.502;2023-12-29T07:49:32;-12.36;68.86
75838;SHT30;64480;52.040;113.502;2023-12-29T07:52:39;-12.35;68.88
75838;SHT30;64480;52.040;113.502;2023-12-29T07:55:46;-12.46;68.66
75838;SHT30;64480;52.040;113.502;2023-12-29T07:58:52;-12.63;68.60
75838;SHT30;64480;52.040;113.502;2023-12-29T08:01:56;-12.73;69.16
75838;SHT30;64480;52.040;113.502;2023-12-29T08:05:01;-12.74;69.26
75838;SHT30;64480;52.040;113.502;2023-12-29T08:08:06;-12.77;69.38
75838;SHT30;64480;52.040;113.502;2023-12-29T08:11:14;-12.79;69.44
75838;SHT30;64480;52.040;113.502;2023-12-29T08:14:21;-12.80;69.69
75838;SHT30;64480;52.040;113.502;2023-12-29T08:17:24;-12.72;69.91
75838;SHT30;64480;52.040;113.502;2023-12-29T08:20:29;-12.66;69.78
75838;SHT30;64480;52.040;113.502;2023-12-29T08:23:32;-12.74;69.25
75838;SHT30;64480;52.040;113.502;2023-12-29T08:26:45;-12.77;69.57
75838;SHT30;64480;52.040;113.502;2023-12-29T08:29:49;-12.80;69.53
75838;SHT30;64480;52.040;113.502;2023-12-29T08:32:53;-12.77;69.33
75838;SHT30;64480;52.040;113.502;2023-12-29T08:35:56;-12.74;69.47
75838;SHT30;64480;52.040;113.502;2023-12-29T08:39:04;-12.81;68.93
75838;SHT30;64480;52.040;113.502;2023-12-29T08:42:08;-12.87;69.22
75838;SHT30;64480;52.040;113.502;2023-12-29T08:45:15;-12.98;69.05
75838;SHT30;64480;52.040;113.502;2023-12-29T08:48:18;-12.94;70.02
75838;SHT30;64480;52.040;113.502;2023-12-29T08:51:23;-12.88;69.91
75838;SHT30;64480;52.040;113.502;2023-12-29T08:54:26;-12.77;69.85
75838;SHT30;64480;52.040;113.502;2023-12-29T08:57:31;-12.69;69.65
75838;SHT30;64480;52.040;113.502;2023-12-29T09:00:38;-12.66;69.52
75838;SHT30;64480;52.040;113.502;2023-12-29T09:03:43;-12.59;69.31
75838;SHT30;64480;52.040;113.502;2023-12-29T09:06:46;-12.55;69.34
75838;SHT30;64480;52.040;113.502;2023-12-29T09:09:51;-12.53;69.63
75838;SHT30;64480;52.040;113.502;2023-12-29T09:12:54;-12.62;69.13
75838;SHT30;64480;52.040;113.502;2023-12-29T09:15:58;-12.63;69.40
75838;SHT30;64480;52.040;113.502;2023-12-29T09:19:02;-12.65;69.56
75838;SHT30;64480;52.040;113.502;2023-12-29T09:22:23;-12.66;69.49
75838;SHT30;64480;52.040;113.502;2023-12-29T09:25:27;-12.60;69.44
75838;SHT30;64480;52.040;113.502;2023-12-29T09:28:32;-12.66;69.17
75838;SHT30;64480;52.040;113.502;2023-12-29T09:31:39;-12.67;69.42
75838;SHT30;64480;52.040;113.502;2023-12-29T09:34:43;-12.76;69.56
75838;SHT30;64480;52.040;113.502;2023-12-29T09:37:49;-12.77;69.77
75838;SHT30;64480;52.040;113.502;2023-12-29T09:40:53;-12.77;69.66
75838;SHT30;64480;52.040;113.502;2023-12-29T09:43:58;-12.76;69.68
75838;SHT30;64480;52.040;113.502;2023-12-29T09:47:03;-12.77;70.15
75838;SHT30;64480;52.040;113.502;2023-12-29T09:50:10;-12.79;70.00
75838;SHT30;64480;52.040;113.502;2023-12-29T09:53:16;-12.83;69.69
75838;SHT30;64480;52.040;113.502;2023-12-29T09:56:20;-12.95;69.69
75838;SHT30;64480;52.040;113.502;2023-12-29T09:59:25;-13.22;69.41
75838;SHT30;64480;52.040;113.502;2023-12-29T10:02:30;-13.43;69.47
75838;SHT30;64480;52.040;113.502;2023-12-29T10:05:34;-13.63;69.71
75838;SHT30;64480;52.040;113.502;2023-12-29T10:08:45;-13.91;70.00
75838;SHT30;64480;52.040;113.502;2023-12-29T10:11:50;-14.06;70.62
75838;SHT30;64480;52.040;113.502;2023-12-29T10:21:37;-14.19;70.80
75838;SHT30;64480;52.040;113.502;2023-12-29T10:24:44;-14.19;70.97
75838;SHT30;64480;52.040;113.502;2023-12-29T10:27:50;-14.21;70.57
75838;SHT30;64480;52.040;113.502;2023-12-29T10:30:55;-14.34;69.78
75838;SHT30;64480;52.040;113.502;2023-12-29T10:34:19;-14.39;70.21
75838;SHT30;64480;52.040;113.502;2023-12-29T10:37:23;-14.33;70.40
75838;SHT30;64480;52.040;113.502;2023-12-29T10:40:26;-14.42;69.72
75838;SHT30;64480;52.040;113.502;2023-12-29T10:43:31;-14.51;69.51
75838;SHT30;64480;52.040;113.502;2023-12-29T10:46:35;-14.57;69.76
75838;SHT30;64480;52.040;113.502;2023-12-29T10:49:42;-14.64;69.89
75838;SHT30;64480;52.040;113.502;2023-12-29T10:52:45;-14.57;70.30
75838;SHT30;64480;52.040;113.502;2023-12-29T10:55:50;-14.56;69.88
75838;SHT30;64480;52.040;113.502;2023-12-29T10:59:01;-14.63;70.23
75838;SHT30;64480;52.040;113.502;2023-12-29T11:02:06;-14.63;70.46
75838;SHT30;64480;52.040;113.502;2023-12-29T11:05:12;-14.65;70.33
75838;SHT30;64480;52.040;113.502;2023-12-29T11:08:18;-14.64;70.64
75838;SHT30;64480;52.040;113.502;2023-12-29T11:11:21;-14.68;70.30
75838;SHT30;64480;52.040;113.502;2023-12-29T11:14:26;-14.84;69.82
75838;SHT30;64480;52.040;113.502;2023-12-29T11:17:34;-14.93;69.54
75838;SHT30;64480;52.040;113.502;2023-12-29T11:20:41;-14.93;69.58
75838;SHT30;64480;52.040;113.502;2023-12-29T11:23:47;-14.87;69.66
75838;SHT30;64480;52.040;113.502;2023-12-29T11:26:51;-14.89;69.80
75838;SHT30;64480;52.040;113.502;2023-12-29T11:29:59;-14.88;69.70
75838;SHT30;64480;52.040;113.502;2023-12-29T11:33:31;-14.93;69.27
75838;SHT30;64480;52.040;113.502;2023-12-29T11:36:45;-14.99;69.08
75838;SHT30;64480;52.040;113.502;2023-12-29T11:40:04;-14.96;69.15
75838;SHT30;64480;52.040;113.502;2023-12-29T11:43:18;-14.98;68.94
75838;SHT30;64480;52.040;113.502;2023-12-29T11:46:39;-14.95;69.14
75838;SHT30;64480;52.040;113.502;2023-12-29T11:49:59;-14.89;69.34
75838;SHT30;64480;52.040;113.502;2023-12-29T11:53:05;-14.82;69.59
75838;SHT30;64480;52.040;113.502;2023-12-29T11:56:16;-14.71;69.76
75838;SHT30;64480;52.040;113.502;2023-12-29T11:59:24;-14.63;69.66
75838;SHT30;64480;52.040;113.502;2023-12-29T12:02:28;-14.54;69.64
75838;SHT30;64480;52.040;113.502;2023-12-29T12:05:49;-14.54;69.68
75838;SHT30;64480;52.040;113.502;2023-12-29T12:09:16;-14.47;69.64
75838;SHT30;64480;52.040;113.502;2023-12-29T12:12:50;-14.49;69.66
75838;SHT30;64480;52.040;113.502;2023-12-29T12:15:57;-14.44;69.50
75838;SHT30;64480;52.040;113.502;2023-12-29T12:19:01;-14.50;69.10
75838;SHT30;64480;52.040;113.502;2023-12-29T12:22:06;-14.43;69.85
75838;SHT30;64480;52.040;113.502;2023-12-29T12:25:12;-14.46;69.45
75838;SHT30;64480;52.040;113.502;2023-12-29T12:28:15;-14.49;69.47
75838;SHT30;64480;52.040;113.502;2023-12-29T12:31:20;-14.50;68.99
75838;SHT30;64480;52.040;113.502;2023-12-29T12:34:23;-14.59;68.90
75838;SHT30;64480;52.040;113.502;2023-12-29T12:37:29;-14.72;69.10
75838;SHT30;64480;52.040;113.502;2023-12-29T12:40:32;-14.79;69.40
75838;SHT30;64480;52.040;113.502;2023-12-29T12:43:39;-14.84;69.72
75838;SHT30;64480;52.040;113.502;2023-12-29T12:49:50;-14.81;70.64
75838;SHT30;64480;52.040;113.502;2023-12-29T12:52:56;-14.79;70.66
75838;SHT30;64480;52.040;113.502;2023-12-29T12:56:01;-14.74;70.63
75838;SHT30;64480;52.040;113.502;2023-12-29T12:59:06;-14.79;70.30
75838;SHT30;64480;52.040;113.502;2023-12-29T13:02:10;-14.75;70.67
75838;SHT30;64480;52.040;113.502;2023-12-29T13:05:16;-14.68;70.95
75838;SHT30;64480;52.040;113.502;2023-12-29T13:08:22;-14.57;70.73
75838;SHT30;64480;52.040;113.502;2023-12-29T13:11:36;-14.50;70.39
75838;SHT30;64480;52.040;113.502;2023-12-29T13:14:43;-14.51;70.05
75838;SHT30;64480;52.040;113.502;2023-12-29T13:17:51;-14.57;70.04
75838;SHT30;64480;52.040;113.502;2023-12-29T13:20:59;-14.54;70.17
75838;SHT30;64480;52.040;113.502;2023-12-29T13:24:06;-14.56;70.00
75838;SHT30;64480;52.040;113.502;2023-12-29T13:27:11;-14.54;70.54
75838;SHT30;64480;52.040;113.502;2023-12-29T13:30:19;-14.57;71.10
75838;SHT30;64480;52.040;113.502;2023-12-29T13:33:48;-14.54;71.26
75838;SHT30;64480;52.040;113.502;2023-12-29T13:37:02;-14.51;71.05
75838;SHT30;64480;52.040;113.502;2023-12-29T13:43:46;-14.44;70.44
75838;SHT30;64480;52.040;113.502;2023-12-29T13:46:51;-14.47;70.58
75838;SHT30;64480;52.040;113.502;2023-12-29T13:49:55;-14.43;71.00
75838;SHT30;64480;52.040;113.502;2023-12-29T13:53:00;-14.42;70.73
75838;SHT30;64480;52.040;113.502;2023-12-29T13:56:11;-14.36;70.87
75838;SHT30;64480;52.040;113.502;2023-12-29T13:59:14;-14.32;70.84
75838;SHT30;64480;52.040;113.502;2023-12-29T14:02:32;-14.19;70.95
75838;SHT30;64480;52.040;113.502;2023-12-29T14:05:48;-13.99;71.01
75838;SHT30;64480;52.040;113.502;2023-12-29T14:08:54;-13.98;69.38
75838;SHT30;64480;52.040;113.502;2023-12-29T14:11:57;-14.16;67.58
75838;SHT30;64480;52.040;113.502;2023-12-29T14:15:05;-14.30;67.45
75838;SHT30;64480;52.040;113.502;2023-12-29T14:21:32;-14.37;67.27
75838;SHT30;64480;52.040;113.502;2023-12-29T14:24:36;-14.42;67.65
75838;SHT30;64480;52.040;113.502;2023-12-29T14:27:41;-14.36;67.80
75838;SHT30;64480;52.040;113.502;2023-12-29T14:30:46;-14.44;67.11
75838;SHT30;64480;52.040;113.502;2023-12-29T14:33:49;-14.65;66.51
75838;SHT30;64480;52.040;113.502;2023-12-29T14:36:53;-14.77;67.01
75838;SHT30;64480;52.040;113.502;2023-12-29T14:39:57;-14.87;67.17
75838;SHT30;64480;52.040;113.502;2023-12-29T14:43:01;-14.91;67.55
75838;SHT30;64480;52.040;113.502;2023-12-29T14:46:05;-14.79;67.83
75838;SHT30;64480;52.040;113.502;2023-12-29T14:49:10;-14.84;67.21
75838;SHT30;64480;52.040;113.502;2023-12-29T14:52:14;-14.84;67.20
75838;SHT30;64480;52.040;113.502;2023-12-29T14:55:18;-14.82;67.00
75838;SHT30;64480;52.040;113.502;2023-12-29T14:58:23;-14.87;67.02
75838;SHT30;64480;52.040;113.502;2023-12-29T15:01:26;-14.82;67.35
75838;SHT30;64480;52.040;113.502;2023-12-29T15:04:30;-14.79;67.35
75838;SHT30;64480;52.040;113.502;2023-12-29T15:07:34;-14.79;67.31
75838;SHT30;64480;52.040;113.502;2023-12-29T15:10:38;-14.82;67.08
75838;SHT30;64480;52.040;113.502;2023-12-29T15:13:45;-14.81;67.09
75838;SHT30;64480;52.040;113.502;2023-12-29T15:16:49;-14.75;67.42
75838;SHT30;64480;52.040;113.502;2023-12-29T15:19:53;-14.63;67.60
75838;SHT30;64480;52.040;113.502;2023-12-29T15:22:58;-14.47;67.55
75838;SHT30;64480;52.040;113.502;2023-12-29T15:26:04;-14.39;67.27
75838;SHT30;64480;52.040;113.502;2023-12-29T15:29:08;-14.30;67.29
75838;SHT30;64480;52.040;113.502;2023-12-29T15:32:11;-14.25;66.96
75838;SHT30;64480;52.040;113.502;2023-12-29T15:35:15;-14.26;67.35
75838;SHT30;64480;52.040;113.502;2023-12-29T15:38:19;-14.23;67.73
75838;SHT30;64480;52.040;113.502;2023-12-29T15:41:23;-14.08;68.07
75838;SHT30;64480;52.040;113.502;2023-12-29T15:44:28;-14.06;67.80
75838;SHT30;64480;52.040;113.502;2023-12-29T15:47:31;-13.99;67.93
75838;SHT30;64480;52.040;113.502;2023-12-29T15:50:34;-13.85;68.17
75838;SHT30;64480;52.040;113.502;2023-12-29T15:53:38;-13.73;67.80
75838;SHT30;64480;52.040;113.502;2023-12-29T15:56:44;-13.64;67.43
75838;SHT30;64480;52.040;113.502;2023-12-29T15:59:48;-13.59;67.23
75838;SHT30;64480;52.040;113.502;2023-12-29T16:02:51;-13.71;66.64
75838;SHT30;64480;52.040;113.502;2023-12-29T16:05:54;-13.74;66.58
75838;SHT30;64480;52.040;113.502;2023-12-29T16:08:57;-13.63;66.58
75838;SHT30;64480;52.040;113.502;2023-12-29T16:12:02;-13.73;65.83
75838;SHT30;64480;52.040;113.502;2023-12-29T16:15:06;-13.77;66.36
75838;SHT30;64480;52.040;113.502;2023-12-29T16:18:16;-13.68;66.05
75838;SHT30;64480;52.040;113.502;2023-12-29T16:21:20;-13.74;66.26
75838;SHT30;64480;52.040;113.502;2023-12-29T16:24:24;-13.67;66.34
75838;SHT30;64480;52.040;113.502;2023-12-29T16:27:28;-13.67;66.07
75838;SHT30;64480;52.040;113.502;2023-12-29T16:30:33;-13.79;65.94
75838;SHT30;64480;52.040;113.502;2023-12-29T16:33:37;-13.82;66.05
75838;SHT30;64480;52.040;113.502;2023-12-29T16:36:56;-14.04;65.62
75838;SHT30;64480;52.040;113.502;2023-12-29T16:40:00;-14.13;66.16
75838;SHT30;64480;52.040;113.502;2023-12-29T16:43:07;-14.28;65.88
75838;SHT30;64480;52.040;113.502;2023-12-29T16:46:12;-14.42;66.01
75838;SHT30;64480;52.040;113.502;2023-12-29T16:49:16;-14.43;66.29
75838;SHT30;64480;52.040;113.502;2023-12-29T16:52:19;-14.53;66.03
75838;SHT30;64480;52.040;113.502;2023-12-29T16:55:23;-14.60;66.11
75838;SHT30;64480;52.040;113.502;2023-12-29T16:58:27;-14.63;66.25
75838;SHT30;64480;52.040;113.502;2023-12-29T17:01:31;-14.54;66.79
75838;SHT30;64480;52.040;113.502;2023-12-29T17:04:38;-14.42;67.01
75838;SHT30;64480;52.040;113.502;2023-12-29T17:07:45;-14.36;66.91
75838;SHT30;64480;52.040;113.502;2023-12-29T17:10:48;-14.26;66.99
75838;SHT30;64480;52.040;113.502;2023-12-29T17:13:53;-14.18;67.07
75838;SHT30;64480;52.040;113.502;2023-12-29T17:16:56;-14.05;67.62
75838;SHT30;64480;52.040;113.502;2023-12-29T17:19:59;-13.88;68.06
75838;SHT30;64480;52.040;113.502;2023-12-29T17:23:04;-13.77;68.26
75838;SHT30;64480;52.040;113.502;2023-12-29T17:26:11;-13.81;68.21
75838;SHT30;64480;52.040;113.502;2023-12-29T17:29:15;-13.78;68.60
75838;SHT30;64480;52.040;113.502;2023-12-29T17:32:19;-13.81;68.61
75838;SHT30;64480;52.040;113.502;2023-12-29T17:35:23;-13.81;68.90
75838;SHT30;64480;52.040;113.502;2023-12-29T17:38:28;-13.77;69.03
75838;SHT30;64480;52.040;113.502;2023-12-29T17:41:32;-13.68;69.06
75838;SHT30;64480;52.040;113.502;2023-12-29T17:44:35;-13.67;68.72
75838;SHT30;64480;52.040;113.502;2023-12-29T17:47:39;-13.60;68.71
75838;SHT30;64480;52.040;113.502;2023-12-29T17:50:46;-13.53;68.57
75838;SHT30;64480;52.040;113.502;2023-12-29T17:53:50;-13.57;67.93
75838;SHT30;64480;52.040;113.502;2023-12-29T17:56:53;-13.75;67.24
75838;SHT30;64480;52.040;113.502;2023-12-29T17:59:56;-13.95;67.07
75838;SHT30;64480;52.040;113.502;2023-12-29T18:03:00;-14.12;66.91
75838;SHT30;64480;52.040;113.502;2023-12-29T18:06:04;-14.08;67.13
75838;SHT30;64480;52.040;113.502;2023-12-29T18:09:09;-14.13;66.65
75838;SHT30;64480;52.040;113.502;2023-12-29T18:12:17;-14.18;66.57
75838;SHT30;64480;52.040;113.502;2023-12-29T18:15:20;-14.08;66.38
75838;SHT30;64480;52.040;113.502;2023-12-29T18:18:25;-14.04;66.04
75838;SHT30;64480;52.040;113.502;2023-12-29T18:21:29;-14.08;65.82
75838;SHT30;64480;52.040;113.502;2023-12-29T18:24:34;-14.11;66.27
75838;SHT30;64480;52.040;113.502;2023-12-29T18:27:37;-14.09;66.20
75838;SHT30;64480;52.040;113.502;2023-12-29T18:30:41;-14.08;66.04
75838;SHT30;64480;52.040;113.502;2023-12-29T18:33:48;-13.96;66.31
75838;SHT30;64480;52.040;113.502;2023-12-29T18:36:54;-13.84;65.87
75838;SHT30;64480;52.040;113.502;2023-12-29T18:39:59;-13.82;65.57
75838;SHT30;64480;52.040;113.502;2023-12-29T18:43:03;-13.64;65.63
75838;SHT30;64480;52.040;113.502;2023-12-29T18:46:08;-13.51;65.28
75838;SHT30;64480;52.040;113.502;2023-12-29T18:49:13;-13.42;65.04
75838;SHT30;64480;52.040;113.502;2023-12-29T18:52:20;-13.51;64.95
75838;SHT30;64480;52.040;113.502;2023-12-29T18:55:23;-13.46;65.94
75838;SHT30;64480;52.040;113.502;2023-12-29T18:58:27;-13.38;66.01
75838;SHT30;64480;52.040;113.502;2023-12-29T19:01:31;-13.33;66.29
75838;SHT30;64480;52.040;113.502;2023-12-29T19:04:34;-13.19;65.96
75838;SHT30;64480;52.040;113.502;2023-12-29T19:07:38;-13.15;65.67
75838;SHT30;64480;52.040;113.502;2023-12-29T19:14:10;-13.11;65.09
75838;SHT30;64480;52.040;113.502;2023-12-29T19:17:14;-13.11;65.45
75838;SHT30;64480;52.040;113.502;2023-12-29T19:20:18;-13.05;65.72
75838;SHT30;64480;52.040;113.502;2023-12-29T19:23:22;-13.14;65.50
75838;SHT30;64480;52.040;113.502;2023-12-29T19:26:26;-13.14;65.73
75838;SHT30;64480;52.040;113.502;2023-12-29T19:29:31;-13.26;66.19
75838;SHT30;64480;52.040;113.502;2023-12-29T19:32:36;-13.18;66.96